Grainfield, KS (67737)

5:26 AM CDT on July 11, 2014 (GMT -0500)
Angelus, KS (KKSGRINN2) Elev 2958 ft | 39.21 °N, 100.70 °W | Change Station

Current weather conditions updated 3 seconds ago

Clear
Clear
66.6 °F
Feels Like 66.6 °F
N
3.8
Wind Variable Wind from SW
Gusts 5.4 mph

Today is forecast to be Much Warmer than yesterday.

Today
High -- | Low -- °F
--% Chance of Precip.
Yesterday
High -- | Low -- °F
Precip. -- in
6:25 AM 9:09 PM
Waxing Gibbous, 98% visible
Pressure 29.96 in
Visibility 10.0 miles
Clouds Clear
Dew Point 59 °F
Humidity 76%
Rainfall 0.00 in
Snow Depth Not available.
UV 0 out of 12
Pollen 5.80 out of 12
Air Quality Not available.
Flu Activity No Activity
METAR KCBK 111015Z AUTO 19007KT 10SM CLR 22/14 A2996 RMK AO2

More Conditions Fewer Conditions

Pressure 29.96 in
Visibility 10.0 miles
Clouds Clear
Dew Point 59 °F
Humidity 76%
Rainfall 0.00 in
Snow Depth Not available.
UV 0 out of 12
Pollen 5.80 out of 12
Air Quality Not available.
Flu Activity No Activity
METAR KCBK 111015Z AUTO 19007KT 10SM CLR 22/14 A2996 RMK AO2

More Conditions Fewer Conditions

10-Day Weather Forecast

Almanac

Astronomy

Jul. 11, 2014 Rise Set
Actual Time 6:25 AM CDT 9:09 PM CDT
Civil Twilight 5:53 AM CDT 9:40 PM CDT
Nautical Twilight 5:14 AM CDT 10:19 PM CDT
Astronomical Twilight 4:29 AM CDT 11:04 PM CDT
Moon 8:21 PM CDT 5:39 AM CDT
Length of Visible Light 15h 46m
Length of Day
14h 43m
Tomorrow will be 1m 8s shorter.
Waxing Gibbous, 98% of the Moon is Illuminated
Today
Waxing Gibbous
Jul 12
Full
Jul 18
Last Quarter
Jul 26
New
Aug 3
First Quarter

Today's Extremes

State Highs State Lows

Community

WunderPhotos

Upload Photos

1,732,407 photos uploaded!

WunderBlogs® & News

Nearby

Snow Depth

Station Depth Elevation
No new snow has been reported.

Earthquake Activity

City Distance Mag. Time & Date
No recent earthquake activity has been reported nearby.
Minimum magnitude displayed is 2.5.

Coastal Water Temperatures

Place Temperature
No Stations Reporting

Nearby Weather Stations

Station Location Temp. Dew Point Humidity Wind Precip. Elev Updated Type
MesoWest GRINEL , Grinnell, KS 70 °F - - North  at  - 0.00 in / hr 2879 ft 4:25 AM CDT MADIS
Angelus, KS, Grinnell, KS 66.6 °F 59 °F 76% SW  at  3.8 mph 0.00 in / hr 2958 ft 5:26 AM CDT Rapid Fire

Show More Stations Show Fewer Stations